sensor_id;sensor_type;location;lat;lon;timestamp;P1;durP1;ratioP1;P2;durP2;ratioP2
26034;SDS011;13809;48.632;11.576;2024-03-22T00:02:19;15.47;;;13.87;;
26034;SDS011;13809;48.632;11.576;2024-03-22T00:07:23;13.07;;;11.77;;
26034;SDS011;13809;48.632;11.576;2024-03-22T00:12:26;14.87;;;13.30;;
26034;SDS011;13809;48.632;11.576;2024-03-22T00:17:28;14.47;;;13.17;;
26034;SDS011;13809;48.632;11.576;2024-03-22T00:22:33;14.30;;;12.97;;
26034;SDS011;13809;48.632;11.576;2024-03-22T00:27:35;15.50;;;13.93;;
26034;SDS011;13809;48.632;11.576;2024-03-22T00:32:38;15.03;;;13.63;;
26034;SDS011;13809;48.632;11.576;2024-03-22T00:37:41;15.57;;;14.07;;
26034;SDS011;13809;48.632;11.576;2024-03-22T00:42:44;14.43;;;12.93;;
26034;SDS011;13809;48.632;11.576;2024-03-22T00:47:46;14.70;;;12.93;;
26034;SDS011;13809;48.632;11.576;2024-03-22T00:52:50;15.27;;;13.67;;
26034;SDS011;13809;48.632;11.576;2024-03-22T00:57:55;14.93;;;13.43;;
26034;SDS011;13809;48.632;11.576;2024-03-22T01:02:57;15.37;;;13.77;;
26034;SDS011;13809;48.632;11.576;2024-03-22T01:08:00;16.30;;;14.27;;
26034;SDS011;13809;48.632;11.576;2024-03-22T01:13:03;14.83;;;13.33;;
26034;SDS011;13809;48.632;11.576;2024-03-22T01:18:05;14.93;;;13.43;;
26034;SDS011;13809;48.632;11.576;2024-03-22T01:23:09;15.70;;;14.10;;
26034;SDS011;13809;48.632;11.576;2024-03-22T01:28:11;13.23;;;11.93;;
26034;SDS011;13809;48.632;11.576;2024-03-22T01:33:13;14.33;;;12.97;;
26034;SDS011;13809;48.632;11.576;2024-03-22T01:38:17;12.43;;;11.33;;
26034;SDS011;13809;48.632;11.576;2024-03-22T01:43:20;12.67;;;11.37;;
26034;SDS011;13809;48.632;11.576;2024-03-22T01:48:22;12.73;;;11.50;;
26034;SDS011;13809;48.632;11.576;2024-03-22T01:53:26;12.70;;;11.40;;
26034;SDS011;13809;48.632;11.576;2024-03-22T01:58:28;11.33;;;10.20;;
26034;SDS011;13809;48.632;11.576;2024-03-22T02:03:31;12.80;;;11.60;;
26034;SDS011;13809;48.632;11.576;2024-03-22T02:08:34;13.10;;;11.80;;
26034;SDS011;13809;48.632;11.576;2024-03-22T02:13:36;14.60;;;13.20;;
26034;SDS011;13809;48.632;11.576;2024-03-22T02:18:39;13.97;;;12.57;;
26034;SDS011;13809;48.632;11.576;2024-03-22T02:23:43;14.20;;;12.83;;
26034;SDS011;13809;48.632;11.576;2024-03-22T02:28:45;13.73;;;12.33;;
26034;SDS011;13809;48.632;11.576;2024-03-22T02:33:50;13.37;;;12.03;;
26034;SDS011;13809;48.632;11.576;2024-03-22T02:38:54;12.80;;;11.60;;
26034;SDS011;13809;48.632;11.576;2024-03-22T02:43:56;14.13;;;12.07;;
26034;SDS011;13809;48.632;11.576;2024-03-22T02:48:58;14.13;;;12.73;;
26034;SDS011;13809;48.632;11.576;2024-03-22T02:54:02;12.77;;;11.47;;
26034;SDS011;13809;48.632;11.576;2024-03-22T02:59:06;12.87;;;11.73;;
26034;SDS011;13809;48.632;11.576;2024-03-22T03:04:08;13.17;;;11.80;;
26034;SDS011;13809;48.632;11.576;2024-03-22T03:09:11;11.03;;;9.90;;
26034;SDS011;13809;48.632;11.576;2024-03-22T03:14:13;13.23;;;11.97;;
26034;SDS011;13809;48.632;11.576;2024-03-22T03:19:16;13.37;;;11.97;;
26034;SDS011;13809;48.632;11.576;2024-03-22T03:24:19;12.93;;;11.67;;
26034;SDS011;13809;48.632;11.576;2024-03-22T03:29:21;12.57;;;10.30;;
26034;SDS011;13809;48.632;11.576;2024-03-22T03:34:23;10.60;;;9.57;;
26034;SDS011;13809;48.632;11.576;2024-03-22T03:39:27;10.93;;;9.93;;
26034;SDS011;13809;48.632;11.576;2024-03-22T03:44:29;11.57;;;10.57;;
26034;SDS011;13809;48.632;11.576;2024-03-22T03:49:32;11.20;;;10.10;;
26034;SDS011;13809;48.632;11.576;2024-03-22T03:54:35;12.57;;;11.37;;
26034;SDS011;13809;48.632;11.576;2024-03-22T03:59:38;12.93;;;11.40;;
26034;SDS011;13809;48.632;11.576;2024-03-22T04:04:40;12.57;;;11.37;;
26034;SDS011;13809;48.632;11.576;2024-03-22T04:09:43;11.03;;;9.97;;
26034;SDS011;13809;48.632;11.576;2024-03-22T04:14:46;10.43;;;9.40;;
26034;SDS011;13809;48.632;11.576;2024-03-22T04:19:49;11.57;;;9.80;;
26034;SDS011;13809;48.632;11.576;2024-03-22T04:24:53;11.93;;;10.83;;
26034;SDS011;13809;48.632;11.576;2024-03-22T04:29:56;10.27;;;9.27;;
26034;SDS011;13809;48.632;11.576;2024-03-22T04:34:58;11.73;;;10.60;;
26034;SDS011;13809;48.632;11.576;2024-03-22T04:40:02;11.90;;;10.70;;
26034;SDS011;13809;48.632;11.576;2024-03-22T04:45:05;11.50;;;10.40;;
26034;SDS011;13809;48.632;11.576;2024-03-22T04:50:08;11.47;;;10.13;;
26034;SDS011;13809;48.632;11.576;2024-03-22T04:55:12;11.77;;;10.63;;
26034;SDS011;13809;48.632;11.576;2024-03-22T05:00:15;10.93;;;9.83;;
26034;SDS011;13809;48.632;11.576;2024-03-22T05:05:17;11.10;;;10.00;;
26034;SDS011;13809;48.632;11.576;2024-03-22T05:10:21;11.37;;;10.20;;
26034;SDS011;13809;48.632;11.576;2024-03-22T05:15:23;10.20;;;9.20;;
26034;SDS011;13809;48.632;11.576;2024-03-22T05:20:27;10.50;;;9.50;;
26034;SDS011;13809;48.632;11.576;2024-03-22T05:25:30;10.37;;;9.37;;
26034;SDS011;13809;48.632;11.576;2024-03-22T05:30:33;12.80;;;11.50;;
26034;SDS011;13809;48.632;11.576;2024-03-22T05:35:35;11.60;;;10.40;;
26034;SDS011;13809;48.632;11.576;2024-03-22T05:40:38;12.83;;;11.53;;
26034;SDS011;13809;48.632;11.576;2024-03-22T05:45:41;12.93;;;11.60;;
26034;SDS011;13809;48.632;11.576;2024-03-22T05:50:43;10.67;;;9.67;;
26034;SDS011;13809;48.632;11.576;2024-03-22T05:55:47;10.90;;;9.90;;
26034;SDS011;13809;48.632;11.576;2024-03-22T06:00:49;12.40;;;11.27;;
26034;SDS011;13809;48.632;11.576;2024-03-22T06:05:51;12.03;;;10.93;;
26034;SDS011;13809;48.632;11.576;2024-03-22T06:10:57;13.13;;;11.53;;
26034;SDS011;13809;48.632;11.576;2024-03-22T06:15:59;13.63;;;12.17;;
26034;SDS011;13809;48.632;11.576;2024-03-22T06:21:01;12.77;;;11.47;;
26034;SDS011;13809;48.632;11.576;2024-03-22T06:26:05;13.70;;;12.10;;
26034;SDS011;13809;48.632;11.576;2024-03-22T06:31:07;13.43;;;12.03;;
26034;SDS011;13809;48.632;11.576;2024-03-22T06:36:09;13.77;;;12.37;;
26034;SDS011;13809;48.632;11.576;2024-03-22T06:41:13;13.77;;;11.63;;
26034;SDS011;13809;48.632;11.576;2024-03-22T06:46:15;15.60;;;14.00;;
26034;SDS011;13809;48.632;11.576;2024-03-22T06:51:17;14.63;;;13.13;;
26034;SDS011;13809;48.632;11.576;2024-03-22T06:56:21;14.03;;;12.63;;
26034;SDS011;13809;48.632;11.576;2024-03-22T07:01:23;15.10;;;13.60;;
26034;SDS011;13809;48.632;11.576;2024-03-22T07:06:26;14.73;;;13.27;;
26034;SDS011;13809;48.632;11.576;2024-03-22T07:11:29;13.00;;;11.73;;
26034;SDS011;13809;48.632;11.576;2024-03-22T07:16:33;13.90;;;12.60;;
26034;SDS011;13809;48.632;11.576;2024-03-22T07:21:37;14.60;;;13.17;;
26034;SDS011;13809;48.632;11.576;2024-03-22T07:26:41;14.60;;;13.13;;
26034;SDS011;13809;48.632;11.576;2024-03-22T07:31:43;15.10;;;12.83;;
26034;SDS011;13809;48.632;11.576;2024-03-22T07:36:46;15.07;;;13.60;;
26034;SDS011;13809;48.632;11.576;2024-03-22T07:41:50;14.27;;;12.90;;
26034;SDS011;13809;48.632;11.576;2024-03-22T07:46:52;15.07;;;13.47;;
26034;SDS011;13809;48.632;11.576;2024-03-22T07:51:55;15.90;;;14.30;;
26034;SDS011;13809;48.632;11.576;2024-03-22T07:56:58;16.33;;;13.83;;
26034;SDS011;13809;48.632;11.576;2024-03-22T08:02:01;14.30;;;12.90;;
26034;SDS011;13809;48.632;11.576;2024-03-22T08:07:03;14.80;;;13.20;;
26034;SDS011;13809;48.632;11.576;2024-03-22T08:12:07;14.13;;;12.73;;
26034;SDS011;13809;48.632;11.576;2024-03-22T08:17:10;15.57;;;13.90;;
26034;SDS011;13809;48.632;11.576;2024-03-22T08:22:12;13.77;;;12.37;;
26034;SDS011;13809;48.632;11.576;2024-03-22T08:27:16;14.67;;;13.27;;
26034;SDS011;13809;48.632;11.576;2024-03-22T08:32:18;14.50;;;13.20;;
26034;SDS011;13809;48.632;11.576;2024-03-22T08:37:20;14.43;;;12.93;;
26034;SDS011;13809;48.632;11.576;2024-03-22T08:42:24;13.67;;;12.27;;
26034;SDS011;13809;48.632;11.576;2024-03-22T08:47:26;15.43;;;13.93;;
26034;SDS011;13809;48.632;11.576;2024-03-22T08:52:28;15.70;;;14.17;;
26034;SDS011;13809;48.632;11.576;2024-03-22T08:57:33;15.97;;;14.20;;
26034;SDS011;13809;48.632;11.576;2024-03-22T09:02:36;15.80;;;14.30;;
26034;SDS011;13809;48.632;11.576;2024-03-22T09:07:38;15.37;;;13.93;;
26034;SDS011;13809;48.632;11.576;2024-03-22T09:12:42;15.43;;;13.90;;
26034;SDS011;13809;48.632;11.576;2024-03-22T09:17:44;14.80;;;13.03;;
26034;SDS011;13809;48.632;11.576;2024-03-22T09:22:46;13.33;;;12.17;;
26034;SDS011;13809;48.632;11.576;2024-03-22T09:27:50;14.27;;;12.87;;
26034;SDS011;13809;48.632;11.576;2024-03-22T09:32:53;13.97;;;12.67;;
26034;SDS011;13809;48.632;11.576;2024-03-22T09:37:55;13.83;;;12.57;;
26034;SDS011;13809;48.632;11.576;2024-03-22T09:42:59;14.00;;;12.73;;
26034;SDS011;13809;48.632;11.576;2024-03-22T09:48:04;12.50;;;11.33;;
26034;SDS011;13809;48.632;11.576;2024-03-22T09:53:07;12.10;;;10.97;;
26034;SDS011;13809;48.632;11.576;2024-03-22T09:58:12;11.83;;;10.63;;
26034;SDS011;13809;48.632;11.576;2024-03-22T10:03:15;10.37;;;9.37;;
26034;SDS011;13809;48.632;11.576;2024-03-22T10:08:17;10.50;;;9.60;;
26034;SDS011;13809;48.632;11.576;2024-03-22T10:13:21;8.70;;;7.93;;
26034;SDS011;13809;48.632;11.576;2024-03-22T10:18:23;9.23;;;8.33;;
26034;SDS011;13809;48.632;11.576;2024-03-22T10:23:25;10.33;;;9.33;;
26034;SDS011;13809;48.632;11.576;2024-03-22T10:28:29;11.53;;;10.33;;
26034;SDS011;13809;48.632;11.576;2024-03-22T10:33:32;10.03;;;9.03;;
26034;SDS011;13809;48.632;11.576;2024-03-22T10:38:38;9.40;;;8.40;;
26034;SDS011;13809;48.632;11.576;2024-03-22T10:43:42;9.87;;;8.93;;
26034;SDS011;13809;48.632;11.576;2024-03-22T10:48:44;9.43;;;8.63;;
26034;SDS011;13809;48.632;11.576;2024-03-22T10:53:47;9.57;;;8.67;;
26034;SDS011;13809;48.632;11.576;2024-03-22T10:58:53;10.00;;;9.10;;
26034;SDS011;13809;48.632;11.576;2024-03-22T11:04:02;8.77;;;7.93;;
26034;SDS011;13809;48.632;11.576;2024-03-22T11:09:05;9.17;;;8.27;;
26034;SDS011;13809;48.632;11.576;2024-03-22T11:14:12;10.40;;;9.40;;
26034;SDS011;13809;48.632;11.576;2024-03-22T11:19:14;9.70;;;8.80;;
26034;SDS011;13809;48.632;11.576;2024-03-22T11:24:16;8.70;;;7.80;;
26034;SDS011;13809;48.632;11.576;2024-03-22T11:29:20;9.50;;;7.53;;
26034;SDS011;13809;48.632;11.576;2024-03-22T11:34:22;8.90;;;8.10;;
26034;SDS011;13809;48.632;11.576;2024-03-22T11:39:24;8.47;;;7.67;;
26034;SDS011;13809;48.632;11.576;2024-03-22T11:44:28;8.60;;;7.80;;
26034;SDS011;13809;48.632;11.576;2024-03-22T11:49:31;7.63;;;6.93;;
26034;SDS011;13809;48.632;11.576;2024-03-22T11:54:33;7.73;;;6.73;;
26034;SDS011;13809;48.632;11.576;2024-03-22T11:59:37;7.33;;;6.63;;
26034;SDS011;13809;48.632;11.576;2024-03-22T12:04:42;7.40;;;6.80;;
26034;SDS011;13809;48.632;11.576;2024-03-22T12:09:44;6.57;;;5.97;;
26034;SDS011;13809;48.632;11.576;2024-03-22T12:14:49;8.53;;;6.30;;
26034;SDS011;13809;48.632;11.576;2024-03-22T12:19:52;6.77;;;6.13;;
26034;SDS011;13809;48.632;11.576;2024-03-22T12:24:54;5.73;;;5.23;;
26034;SDS011;13809;48.632;11.576;2024-03-22T12:30:00;5.77;;;5.30;;
26034;SDS011;13809;48.632;11.576;2024-03-22T12:35:02;5.70;;;5.20;;
26034;SDS011;13809;48.632;11.576;2024-03-22T12:40:06;6.20;;;5.70;;
26034;SDS011;13809;48.632;11.576;2024-03-22T12:45:11;5.27;;;4.87;;
26034;SDS011;13809;48.632;11.576;2024-03-22T12:50:13;5.93;;;5.40;;
26034;SDS011;13809;48.632;11.576;2024-03-22T12:55:16;6.37;;;5.77;;
26034;SDS011;13809;48.632;11.576;2024-03-22T13:00:20;6.90;;;6.20;;
26034;SDS011;13809;48.632;11.576;2024-03-22T13:05:22;6.57;;;6.00;;
26034;SDS011;13809;48.632;11.576;2024-03-22T13:10:24;7.07;;;5.93;;
26034;SDS011;13809;48.632;11.576;2024-03-22T13:15:30;7.20;;;6.60;;
26034;SDS011;13809;48.632;11.576;2024-03-22T13:20:34;7.17;;;6.47;;
26034;SDS011;13809;48.632;11.576;2024-03-22T13:25:37;7.00;;;6.07;;
26034;SDS011;13809;48.632;11.576;2024-03-22T13:30:41;6.53;;;5.87;;
26034;SDS011;13809;48.632;11.576;2024-03-22T13:35:44;7.83;;;6.20;;
26034;SDS011;13809;48.632;11.576;2024-03-22T13:40:52;6.13;;;5.53;;
26034;SDS011;13809;48.632;11.576;2024-03-22T13:45:56;5.97;;;5.40;;
26034;SDS011;13809;48.632;11.576;2024-03-22T13:50:58;5.87;;;4.93;;
26034;SDS011;13809;48.632;11.576;2024-03-22T13:56:00;5.47;;;4.97;;
26034;SDS011;13809;48.632;11.576;2024-03-22T14:01:04;6.03;;;5.53;;
26034;SDS011;13809;48.632;11.576;2024-03-22T14:06:06;5.93;;;5.43;;
26034;SDS011;13809;48.632;11.576;2024-03-22T14:11:08;6.47;;;5.53;;
26034;SDS011;13809;48.632;11.576;2024-03-22T14:16:13;6.23;;;5.67;;
26034;SDS011;13809;48.632;11.576;2024-03-22T14:21:17;8.03;;;6.13;;
26034;SDS011;13809;48.632;11.576;2024-03-22T14:26:20;6.43;;;5.83;;
26034;SDS011;13809;48.632;11.576;2024-03-22T14:31:25;5.97;;;5.37;;
26034;SDS011;13809;48.632;11.576;2024-03-22T14:36:27;6.23;;;5.70;;
26034;SDS011;13809;48.632;11.576;2024-03-22T14:41:29;5.90;;;5.40;;
26034;SDS011;13809;48.632;11.576;2024-03-22T14:46:33;7.40;;;5.80;;
26034;SDS011;13809;48.632;11.576;2024-03-22T14:51:35;6.53;;;5.87;;
26034;SDS011;13809;48.632;11.576;2024-03-22T14:56:38;7.00;;;6.30;;
26034;SDS011;13809;48.632;11.576;2024-03-22T15:01:42;10.27;;;7.10;;
26034;SDS011;13809;48.632;11.576;2024-03-22T15:06:45;7.93;;;5.87;;
26034;SDS011;13809;48.632;11.576;2024-03-22T15:11:49;6.77;;;6.17;;
26034;SDS011;13809;48.632;11.576;2024-03-22T15:16:53;8.50;;;5.90;;
26034;SDS011;13809;48.632;11.576;2024-03-22T15:21:55;11.67;;;6.30;;
26034;SDS011;13809;48.632;11.576;2024-03-22T15:26:57;8.40;;;5.77;;
26034;SDS011;13809;48.632;11.576;2024-03-22T15:32:01;5.53;;;4.97;;
26034;SDS011;13809;48.632;11.576;2024-03-22T15:37:04;7.33;;;5.13;;
26034;SDS011;13809;48.632;11.576;2024-03-22T15:42:06;4.83;;;4.43;;
26034;SDS011;13809;48.632;11.576;2024-03-22T15:47:09;6.33;;;5.13;;
26034;SDS011;13809;48.632;11.576;2024-03-22T15:52:12;3.90;;;3.60;;
26034;SDS011;13809;48.632;11.576;2024-03-22T15:57:15;6.00;;;3.97;;
26034;SDS011;13809;48.632;11.576;2024-03-22T16:02:19;5.63;;;4.50;;
26034;SDS011;13809;48.632;11.576;2024-03-22T16:07:21;7.17;;;3.90;;
26034;SDS011;13809;48.632;11.576;2024-03-22T16:12:24;6.13;;;3.90;;
26034;SDS011;13809;48.632;11.576;2024-03-22T16:17:27;7.60;;;3.77;;
26034;SDS011;13809;48.632;11.576;2024-03-22T16:22:30;4.50;;;3.33;;
26034;SDS011;13809;48.632;11.576;2024-03-22T16:27:34;4.47;;;3.13;;
26034;SDS011;13809;48.632;11.576;2024-03-22T16:32:40;8.63;;;4.17;;
26034;SDS011;13809;48.632;11.576;2024-03-22T16:37:42;8.07;;;3.30;;
26034;SDS011;13809;48.632;11.576;2024-03-22T16:42:44;19.10;;;5.20;;
26034;SDS011;13809;48.632;11.576;2024-03-22T16:47:50;7.70;;;4.47;;
26034;SDS011;13809;48.632;11.576;2024-03-22T16:52:52;4.27;;;3.10;;
26034;SDS011;13809;48.632;11.576;2024-03-22T16:57:54;4.43;;;3.30;;
26034;SDS011;13809;48.632;11.576;2024-03-22T17:03:02;7.90;;;3.30;;
26034;SDS011;13809;48.632;11.576;2024-03-22T17:08:05;8.30;;;3.53;;
26034;SDS011;13809;48.632;11.576;2024-03-22T17:13:08;3.73;;;2.90;;
26034;SDS011;13809;48.632;11.576;2024-03-22T17:18:12;5.40;;;3.27;;
26034;SDS011;13809;48.632;11.576;2024-03-22T17:23:14;3.50;;;3.03;;
26034;SDS011;13809;48.632;11.576;2024-03-22T17:28:16;3.60;;;2.87;;
26034;SDS011;13809;48.632;11.576;2024-03-22T17:33:20;2.47;;;2.27;;
26034;SDS011;13809;48.632;11.576;2024-03-22T17:38:22;3.77;;;2.50;;
26034;SDS011;13809;48.632;11.576;2024-03-22T17:43:24;4.90;;;3.20;;
26034;SDS011;13809;48.632;11.576;2024-03-22T17:48:28;3.40;;;3.10;;
26034;SDS011;13809;48.632;11.576;2024-03-22T17:53:30;5.23;;;3.90;;
26034;SDS011;13809;48.632;11.576;2024-03-22T17:58:32;7.10;;;4.17;;
26034;SDS011;13809;48.632;11.576;2024-03-22T18:03:36;5.87;;;5.17;;
26034;SDS011;13809;48.632;11.576;2024-03-22T18:08:39;9.30;;;8.37;;
26034;SDS011;13809;48.632;11.576;2024-03-22T18:13:41;11.90;;;10.80;;
26034;SDS011;13809;48.632;11.576;2024-03-22T18:18:48;10.57;;;9.47;;
26034;SDS011;13809;48.632;11.576;2024-03-22T18:23:53;10.03;;;8.07;;
26034;SDS011;13809;48.632;11.576;2024-03-22T18:28:55;7.87;;;7.10;;
26034;SDS011;13809;48.632;11.576;2024-03-22T18:33:58;6.57;;;5.97;;
26034;SDS011;13809;48.632;11.576;2024-03-22T18:39:02;6.50;;;5.90;;
26034;SDS011;13809;48.632;11.576;2024-03-22T18:44:05;9.70;;;7.87;;
26034;SDS011;13809;48.632;11.576;2024-03-22T18:49:09;8.33;;;7.53;;
26034;SDS011;13809;48.632;11.576;2024-03-22T18:54:11;8.23;;;6.83;;
26034;SDS011;13809;48.632;11.576;2024-03-22T18:59:14;8.40;;;7.60;;
26034;SDS011;13809;48.632;11.576;2024-03-22T19:04:17;7.73;;;6.57;;
26034;SDS011;13809;48.632;11.576;2024-03-22T19:09:20;6.27;;;5.67;;
26034;SDS011;13809;48.632;11.576;2024-03-22T19:14:22;7.23;;;6.63;;
26034;SDS011;13809;48.632;11.576;2024-03-22T19:19:27;6.80;;;6.07;;
26034;SDS011;13809;48.632;11.576;2024-03-22T19:24:29;6.17;;;5.57;;
26034;SDS011;13809;48.632;11.576;2024-03-22T19:29:32;6.37;;;5.77;;
26034;SDS011;13809;48.632;11.576;2024-03-22T19:34:35;7.30;;;6.70;;
26034;SDS011;13809;48.632;11.576;2024-03-22T19:39:39;7.70;;;7.00;;
26034;SDS011;13809;48.632;11.576;2024-03-22T19:44:41;6.70;;;6.20;;
26034;SDS011;13809;48.632;11.576;2024-03-22T19:49:45;6.47;;;5.97;;
26034;SDS011;13809;48.632;11.576;2024-03-22T19:54:47;8.27;;;7.47;;
26034;SDS011;13809;48.632;11.576;2024-03-22T19:59:49;6.47;;;5.87;;
26034;SDS011;13809;48.632;11.576;2024-03-22T20:04:53;8.97;;;5.43;;
26034;SDS011;13809;48.632;11.576;2024-03-22T20:09:56;4.80;;;4.40;;
26034;SDS011;13809;48.632;11.576;2024-03-22T20:14:58;7.20;;;5.10;;
26034;SDS011;13809;48.632;11.576;2024-03-22T20:20:02;6.63;;;5.17;;
26034;SDS011;13809;48.632;11.576;2024-03-22T20:25:06;6.60;;;5.57;;
26034;SDS011;13809;48.632;11.576;2024-03-22T20:30:09;7.23;;;6.00;;
26034;SDS011;13809;48.632;11.576;2024-03-22T20:35:14;6.00;;;5.40;;
26034;SDS011;13809;48.632;11.576;2024-03-22T20:40:17;6.93;;;4.83;;
